Estación Fecha y Hora Temperatura Temperatura Mínima Temperatura Máxima Humedad Presión Velocidad del Viento Dirección del Viento Precipitación
Bulilla 08/05/2024 08:05 8.8 8.5 14.1 86 1020.9 3.6 SSW 0.0
Ciudad 21/05/2024 09:50 19.1 13.4 19.1 52 1015.0 0 NNE 0.0
Villa-Ventín 21/05/24 9:49 17.5 8.5 17.5 59 1012.1 1.6 360 0.0
Finca Hnos. Guerrero 21/05/24 9:50 17.1 9.6 17.1 60 1012.7 3.2 279 0.0
Finca Balaguer 21/05/2024 09:50 17.7 8.0 17.7 51 1017.2 9 W 0.0
Finca La Gloria 21/05/2024 09:50 17.7 11.7 17.9 47 1015.2 13.0 NW 0.0
Hondo de Carboneras 21/05/2024 09:50 17.9 7.6 17.9 56 1015.8 7.20 WNW 0.0
Hondo de la Lagunilla 21/05/2024 09:53 18.5 6.2 18.5 60 1013.3 11.2 WSW 0.0
La Boquera 21/05/2024 09:53 18.4 8.1 18.4 56 1016.0 10.1 WSW 0.0
La Encina 21/05/2024 09:52 18.2 10.5 18.2 52 1016.73 8.0 NNE 0.0
La Lagunilla 21/05/2024 09:52 18.2 18.2 18.2 60 1011.0 9.7 SSE 0.0
La Parrala 21/05/2024 09:51 19.7 10.8 19.7 49 1016.66 1.6 S 0.0
La Zafra 21/05/2024 09:50 18.0 11.5 18.5 48 1012.3 7.9 W 0.0
Las Quebradas 21/05/2024 09:53 19.9 8.9 19.9 46 1018.3 1.8 ESE 0.0
Las Virtudes 21/05/2024 09:50 19.1 8.4 19.1 55 1015.1 3.2 N 0.0
Peña Rubia 21/05/2024 09:45 18.7 10.1 18.7 49 1018.3 1.8 SW 0.0
Sierra Salinas 21/05/2024 09:50 13.4 7.5 13.4 62 1014.16 1.6 NW 0.0
Sierra de La Villa 21/05/2024 09:50 15.1 12.6 16.8 57 1014.0 1.9 NW 0.0
Colonia de Sierra Salinas 21/05/2024 09:54 16.0 7.6 16.0 56 1012.9 11.2 W 0.0
Cabrera - Casa Anvers 21/05/2024 09:50 17.8 12.2 17.8 55 1015.7 7.2 NNW 0.0